Time;durP1;ratioP1;P1;durP2;ratioP2;P2;SDS_P1;SDS_P2;PMS_P1;PMS_P2;Temp;Humidity;BMP_temperature;BMP_pressure;BME280_temperature;BME280_humidity;BME280_pressure;Samples;Min_cycle;Max_cycle;Signal;HPM_P1;HPM_P2
2022/09/14 00:01:52;;;;;;;26.80;5.55;;;;;;;16.28;100.00;100487.78;5028878;28;20033;-77
2022/09/14 00:04:19;;;;;;;28.05;5.30;;;;;;;16.30;100.00;100491.22;5015968;28;20059;-77
2022/09/14 00:06:55;;;;;;;34.10;5.63;;;;;;;16.20;100.00;100484.09;5028715;28;20096;-78
2022/09/14 00:09:25;;;;;;;22.90;5.18;;;;;;;16.23;100.00;100486.53;5023181;28;20466;-77
2022/09/14 00:11:53;;;;;;;20.23;5.72;;;;;;;16.07;100.00;100479.94;5021949;28;20052;-77
2022/09/14 00:14:21;;;;;;;32.30;5.68;;;;;;;16.20;100.00;100465.66;5005079;28;20151;-76
2022/09/14 00:16:47;;;;;;;18.85;5.13;;;;;;;16.16;100.00;100470.63;5007963;28;20049;-77
2022/09/14 00:19:20;;;;;;;24.80;5.82;;;;;;;16.10;100.00;100470.41;5015872;28;20061;-76
2022/09/14 00:21:58;;;;;;;25.30;6.43;;;;;;;16.10;100.00;100465.78;5013948;28;20029;-76
2022/09/14 00:24:30;;;;;;;29.42;6.63;;;;;;;16.03;100.00;100463.84;5010448;28;20469;-76
2022/09/14 00:26:56;;;;;;;24.48;5.15;;;;;;;16.01;100.00;100460.41;5025337;28;20482;-76
2022/09/14 00:29:23;;;;;;;29.38;5.50;;;;;;;16.04;100.00;100463.69;5029506;28;20030;-76
2022/09/14 00:31:51;;;;;;;27.77;6.03;;;;;;;16.09;100.00;100463.19;5013232;28;20037;-77
2022/09/14 00:34:20;;;;;;;19.85;5.68;;;;;;;16.05;100.00;100464.53;5027510;28;20029;-76
2022/09/14 00:36:53;;;;;;;28.55;6.60;;;;;;;16.08;100.00;100467.81;5031455;28;20033;-77
2022/09/14 00:39:23;;;;;;;31.33;5.32;;;;;;;16.15;100.00;100451.44;5027756;28;20036;-76
2022/09/14 00:41:59;;;;;;;28.92;5.75;;;;;;;16.04;100.00;100451.78;5023013;28;20549;-77
2022/09/14 00:44:30;;;;;;;24.60;5.97;;;;;;;16.02;100.00;100451.06;5023134;28;20034;-77
2022/09/14 00:47:00;;;;;;;29.90;6.55;;;;;;;15.93;100.00;100448.25;5013492;28;20041;-78
2022/09/14 00:49:36;;;;;;;31.70;8.57;;;;;;;15.78;100.00;100437.00;5023949;28;20030;-77
2022/09/14 00:52:25;;;;;;;24.27;7.15;;;;;;;15.70;100.00;100427.78;5014452;28;20037;-78
2022/09/14 00:54:56;;;;;;;45.85;9.77;;;;;;;15.66;100.00;100418.97;5012011;28;20056;-78
2022/09/14 00:57:24;;;;;;;33.75;9.85;;;;;;;15.53;100.00;100411.16;5029811;28;20026;-78
2022/09/14 01:00:07;;;;;;;;;;;;;;;15.47;100.00;100402.69;5013972;28;20037;-78
2022/09/14 01:02:37;;;;;;;37.08;9.50;;;;;;;15.29;100.00;100402.75;5032490;28;20000;-78
2022/09/14 01:05:06;;;;;;;48.50;10.18;;;;;;;15.32;100.00;100402.44;5028660;28;20022;-78
2022/09/14 01:07:55;;;;;;;37.10;9.52;;;;;;;15.26;100.00;100398.41;5029736;28;20041;-77
2022/09/14 01:10:33;;;;;;;57.40;11.38;;;;;;;15.31;100.00;100401.53;5014298;28;20096;-77
2022/09/14 01:13:17;;;;;;;29.98;10.30;;;;;;;15.32;100.00;100406.03;5017459;28;20022;-78
2022/09/14 01:16:02;;;;;;;47.58;10.35;;;;;;;15.24;100.00;100404.09;5017945;28;20046;-77
2022/09/14 01:18:48;;;;;;;40.90;10.75;;;;;;;15.10;100.00;100404.69;5030090;28;20033;-77
2022/09/14 01:21:43;;;;;;;32.13;10.02;;;;;;;15.21;100.00;100395.28;5022760;28;20033;-77
2022/09/14 01:24:35;;;;;;;32.22;8.98;;;;;;;15.14;100.00;100395.06;5027770;28;20064;-77
2022/09/14 01:27:09;;;;;;;40.35;10.32;;;;;;;15.14;100.00;100392.31;5019779;28;20037;-77
2022/09/14 01:29:46;;;;;;;45.47;11.55;;;;;;;15.11;100.00;100389.88;5035912;28;20158;-77
2022/09/14 01:32:11;;;;;;;42.13;10.95;;;;;;;15.10;100.00;100401.91;5020846;28;20036;-78
2022/09/14 01:34:56;;;;;;;25.63;10.00;;;;;;;14.96;100.00;100397.03;5044387;28;20519;-77
2022/09/14 01:37:33;;;;;;;29.58;10.50;;;;;;;15.01;100.00;100395.50;5023195;28;20038;-77
2022/09/14 01:40:22;;;;;;;41.75;10.63;;;;;;;15.02;100.00;100390.84;5018541;28;20029;-77
2022/09/14 01:42:56;;;;;;;43.63;9.35;;;;;;;15.00;100.00;100391.03;5022277;28;20033;-78
2022/09/14 01:45:26;;;;;;;37.13;8.65;;;;;;;14.97;100.00;100382.19;5043096;28;20049;-77
2022/09/14 01:48:02;;;;;;;43.67;11.40;;;;;;;14.96;100.00;100386.84;5015848;28;20061;-77
2022/09/14 01:50:38;;;;;;;41.07;10.60;;;;;;;15.01;100.00;100386.38;5022498;28;20035;-77
2022/09/14 01:53:18;;;;;;;30.27;11.25;;;;;;;15.00;100.00;100385.50;5007227;28;20034;-77
2022/09/14 01:55:57;;;;;;;42.17;10.35;;;;;;;15.01;100.00;100386.38;4999103;28;20393;-77
2022/09/14 01:58:38;;;;;;;51.08;10.48;;;;;;;15.01;100.00;100400.16;5018734;28;20037;-77
2022/09/14 02:01:12;;;;;;;29.55;9.13;;;;;;;14.96;100.00;100395.13;5008174;28;20112;-77
2022/09/14 02:03:51;;;;;;;44.28;10.77;;;;;;;14.93;100.00;100383.56;5019052;28;20444;-77
2022/09/14 02:06:44;;;;;;;42.78;10.82;;;;;;;15.05;100.00;100393.28;5028964;28;20026;-77
2022/09/14 02:09:12;;;;;;;43.50;10.95;;;;;;;14.99;100.00;100388.44;5019989;28;20038;-77
2022/09/14 02:11:43;;;;;;;44.05;10.80;;;;;;;15.02;100.00;100394.47;5023991;28;20030;-77
2022/09/14 02:14:20;;;;;;;44.17;10.65;;;;;;;15.01;100.00;100389.13;5016343;28;20029;-77
2022/09/14 02:16:53;;;;;;;26.05;9.98;;;;;;;15.00;100.00;100396.53;5038933;28;20041;-77
2022/09/14 02:19:23;;;;;;;40.95;10.82;;;;;;;15.02;100.00;100393.59;4998955;28;20064;-77
2022/09/14 02:21:49;;;;;;;45.90;11.40;;;;;;;15.00;100.00;100395.66;5034100;28;20029;-77
2022/09/14 02:24:16;;;;;;;37.17;11.07;;;;;;;15.01;100.00;100402.91;4999112;28;20029;-77
2022/09/14 02:26:50;;;;;;;45.67;11.10;;;;;;;15.11;100.00;100394.53;5041214;28;20025;-77
2022/09/14 02:29:23;;;;;;;33.20;10.02;;;;;;;15.05;100.00;100393.28;5027360;28;20061;-77
2022/09/14 02:32:08;;;;;;;27.25;10.20;;;;;;;14.98;100.00;100386.69;4999919;28;20444;-77
2022/09/14 02:34:50;;;;;;;43.20;10.02;;;;;;;14.92;100.00;100390.09;5028726;28;20033;-77
2022/09/14 02:37:35;;;;;;;35.03;10.27;;;;;;;14.96;100.00;100388.75;5009984;28;20482;-77
2022/09/14 02:40:23;;;;;;;;;;;;;;;14.96;100.00;100394.28;5021166;28;20470;-77
2022/09/14 02:43:11;;;;;;;26.02;9.07;;;;;;;14.94;100.00;100390.78;5022111;28;20365;-77
2022/09/14 02:45:56;;;;;;;40.63;8.60;;;;;;;14.82;100.00;100388.31;5014152;28;20041;-77
2022/09/14 02:48:27;;;;;;;38.50;10.02;;;;;;;14.92;100.00;100388.22;5019591;28;20030;-77
2022/09/14 02:51:29;;;;;;;34.55;9.32;;;;;;;14.82;100.00;100396.59;5016425;28;20025;-75
2022/09/14 02:54:19;;;;;;;28.38;8.77;;;;;;;14.92;100.00;100396.50;5016995;28;20029;-76
2022/09/14 02:57:01;;;;;;;26.60;8.45;;;;;;;14.83;100.00;100398.28;5023997;28;20187;-77
2022/09/14 02:59:31;;;;;;;33.00;9.05;;;;;;;14.88;100.00;100392.31;5002623;28;20489;-77
2022/09/14 03:02:05;;;;;;;38.13;9.02;;;;;;;14.82;100.00;100391.06;5030736;28;20059;-76
2022/09/14 03:04:31;;;;;;;43.88;9.88;;;;;;;14.81;100.00;100391.22;5025599;28;20087;-77
2022/09/14 03:07:07;;;;;;;36.10;8.27;;;;;;;14.74;100.00;100388.25;5024397;28;20517;-77
2022/09/14 03:09:33;;;;;;;29.08;9.18;;;;;;;14.74;100.00;100385.50;5042180;28;20040;-76
2022/09/14 03:11:59;;;;;;;31.80;10.00;;;;;;;14.76;100.00;100379.78;5032080;28;20046;-77
2022/09/14 03:14:26;;;;;;;36.47;9.30;;;;;;;14.71;100.00;100380.31;5012891;28;20188;-76
2022/09/14 03:16:52;;;;;;;40.28;11.25;;;;;;;14.82;100.00;100379.16;5009067;28;20121;-77
2022/09/14 03:19:19;;;;;;;38.35;10.93;;;;;;;14.82;100.00;100377.28;5024053;28;20033;-77
2022/09/14 03:21:45;;;;;;;45.42;12.05;;;;;;;14.82;100.00;100369.03;5029686;28;20041;-77
2022/09/14 03:24:22;;;;;;;43.67;10.48;;;;;;;14.95;100.00;100376.84;5006218;28;20034;-77
2022/09/14 03:26:51;;;;;;;36.30;11.15;;;;;;;14.87;100.00;100365.75;4983678;28;20038;-76
2022/09/14 03:29:25;;;;;;;29.75;9.50;;;;;;;14.76;100.00;100366.91;5029687;28;20056;-77
2022/09/14 03:31:51;;;;;;;34.90;9.82;;;;;;;14.81;100.00;100364.53;5022346;28;20100;-77
2022/09/14 03:34:21;;;;;;;28.10;10.55;;;;;;;14.80;100.00;100365.53;5018603;28;20151;-77
2022/09/14 03:36:48;;;;;;;37.63;9.88;;;;;;;14.75;100.00;100359.66;4991181;28;20034;-77
2022/09/14 03:39:17;;;;;;;36.60;10.60;;;;;;;14.78;100.00;100352.97;5009682;28;20096;-77
2022/09/14 03:41:43;;;;;;;37.03;10.40;;;;;;;14.68;100.00;100353.91;4996841;28;20034;-77
2022/09/14 03:44:09;;;;;;;30.48;9.68;;;;;;;14.62;100.00;100343.53;5003046;28;20120;-77
2022/09/14 03:46:38;;;;;;;35.67;9.02;;;;;;;14.52;100.00;100348.25;5028591;28;20042;-77
2022/09/14 03:49:04;;;;;;;38.00;10.93;;;;;;;14.61;100.00;100339.06;5001355;28;20037;-77
2022/09/14 03:51:34;;;;;;;36.05;10.70;;;;;;;14.53;100.00;100336.22;5021907;28;20474;-77
2022/09/14 03:54:02;;;;;;;38.67;11.10;;;;;;;14.65;100.00;100339.59;5023605;28;20030;-76
2022/09/14 03:56:36;;;;;;;56.03;12.68;;;;;;;14.61;100.00;100338.19;5016898;28;20045;-77
2022/09/14 03:59:03;;;;;;;33.90;10.52;;;;;;;14.58;100.00;100336.59;5014781;28;20385;-77
2022/09/14 04:01:31;;;;;;;37.35;10.52;;;;;;;14.58;100.00;100338.50;5026423;28;20549;-77
2022/09/14 04:03:59;;;;;;;36.78;12.57;;;;;;;14.60;100.00;100333.72;5005804;28;20033;-77
2022/09/14 04:06:34;;;;;;;47.33;12.23;;;;;;;14.48;100.00;100320.16;5020622;28;20030;-77
2022/09/14 04:09:07;;;;;;;39.60;11.18;;;;;;;14.56;100.00;100327.63;5017791;28;20124;-77
2022/09/14 04:11:40;;;;;;;30.55;10.95;;;;;;;14.48;100.00;100313.81;4977653;28;20033;-77
2022/09/14 04:14:13;;;;;;;34.65;11.07;;;;;;;14.51;100.00;100319.84;5014849;28;20381;-77
2022/09/14 04:16:39;;;;;;;37.85;10.65;;;;;;;14.45;100.00;100314.13;5031351;28;20408;-76
2022/09/14 04:19:12;;;;;;;38.88;10.48;;;;;;;14.36;100.00;100309.56;5022862;28;20566;-77
2022/09/14 04:21:39;;;;;;;31.48;9.70;;;;;;;14.39;100.00;100310.09;5028117;28;20465;-76
2022/09/14 04:24:05;;;;;;;41.22;11.55;;;;;;;14.46;100.00;100304.81;5016680;28;20033;-76
2022/09/14 04:26:32;;;;;;;33.55;10.30;;;;;;;14.32;100.00;100304.34;5019629;28;20121;-75
2022/09/14 04:29:03;;;;;;;37.60;10.48;;;;;;;14.49;100.00;100302.63;5026472;28;20028;-76
2022/09/14 04:31:32;;;;;;;32.83;9.77;;;;;;;14.36;100.00;100306.81;5024359;28;20037;-76
2022/09/14 04:34:02;;;;;;;37.60;9.00;;;;;;;14.28;100.00;100302.09;5012618;28;20033;-76
2022/09/14 04:36:29;;;;;;;31.17;8.95;;;;;;;14.29;100.00;100307.44;5011954;28;20112;-76
2022/09/14 04:39:00;;;;;;;34.83;9.30;;;;;;;14.27;100.00;100303.97;5019769;28;20029;-76
2022/09/14 04:41:29;;;;;;;34.33;9.23;;;;;;;14.07;100.00;100292.28;5022871;28;20037;-76
2022/09/14 04:43:55;;;;;;;31.30;9.77;;;;;;;14.20;100.00;100289.13;5014389;28;20489;-76
2022/09/14 04:46:27;;;;;;;32.78;11.35;;;;;;;14.30;100.00;100291.78;5024349;28;20132;-76
2022/09/14 04:48:54;;;;;;;54.83;12.70;;;;;;;14.27;100.00;100303.97;5030257;28;20029;-76
2022/09/14 04:51:26;;;;;;;49.15;10.98;;;;;;;14.23;100.00;100305.34;5028277;28;20037;-76
2022/09/14 04:54:01;;;;;;;29.70;10.85;;;;;;;14.25;100.00;100310.66;5029680;28;20396;-75
2022/09/14 04:56:35;;;;;;;36.03;12.70;;;;;;;14.31;100.00;100305.41;5030503;28;20026;-77
2022/09/14 04:59:07;;;;;;;40.33;12.45;;;;;;;14.23;100.00;100296.19;5018439;28;20087;-77
2022/09/14 05:01:46;;;;;;;42.22;13.45;;;;;;;14.29;100.00;100293.66;5026217;28;20029;-77
2022/09/14 05:04:16;;;;;;;44.95;12.73;;;;;;;14.27;100.00;100297.63;5024880;28;20029;-77
2022/09/14 05:06:49;;;;;;;44.72;14.15;;;;;;;14.28;100.00;100297.47;5029736;28;20041;-77
2022/09/14 05:09:17;;;;;;;54.40;14.15;;;;;;;14.31;100.00;100293.50;5015305;28;20057;-77
2022/09/14 05:11:59;;;;;;;44.08;12.88;;;;;;;14.15;100.00;100294.25;5026640;28;20171;-77
2022/09/14 05:14:28;;;;;;;74.78;15.23;;;;;;;14.28;100.00;100302.09;4996585;28;20548;-77
2022/09/14 05:17:03;;;;;;;43.63;13.85;;;;;;;14.21;100.00;100285.34;5021154;28;20454;-77
2022/09/14 05:19:32;;;;;;;41.13;13.23;;;;;;;14.17;100.00;100294.94;5022126;28;20034;-77
2022/09/14 05:22:05;;;;;;;56.88;14.40;;;;;;;14.21;100.00;100290.84;4997212;28;20042;-77
2022/09/14 05:24:33;;;;;;;50.40;14.35;;;;;;;14.33;100.00;100294.19;5009508;28;20496;-77
2022/09/14 05:27:07;;;;;;;54.80;14.88;;;;;;;14.28;100.00;100299.31;5016905;28;20453;-77
2022/09/14 05:29:41;;;;;;;55.40;15.32;;;;;;;14.32;100.00;100295.25;5024123;28;20041;-77
2022/09/14 05:32:09;;;;;;;45.00;14.55;;;;;;;14.30;100.00;100289.91;5020130;28;20030;-76
2022/09/14 05:34:44;;;;;;;51.00;14.98;;;;;;;14.22;100.00;100291.72;5023866;28;20033;-78
2022/09/14 05:37:11;;;;;;;45.72;14.23;;;;;;;14.27;100.00;100290.22;5033331;28;20432;-76
2022/09/14 05:39:37;;;;;;;55.60;14.63;;;;;;;14.30;100.00;100294.53;5006908;28;20449;-77
2022/09/14 05:42:03;;;;;;;52.40;15.05;;;;;;;14.25;100.00;100288.63;5011600;28;20121;-77
2022/09/14 05:44:29;;;;;;;40.35;14.65;;;;;;;14.16;100.00;100288.56;5015628;28;20037;-78
2022/09/14 05:47:05;;;;;;;48.75;11.93;;;;;;;14.13;100.00;100288.91;5014413;28;20520;-77
2022/09/14 05:49:31;;;;;;;32.30;11.75;;;;;;;14.03;100.00;100288.09;4982516;28;20034;-77
2022/09/14 05:52:05;;;;;;;42.45;12.18;;;;;;;14.07;100.00;100284.03;5022985;28;20405;-77
2022/09/14 05:54:32;;;;;;;39.78;11.40;;;;;;;13.95;100.00;100299.03;5006120;28;20038;-77
2022/09/14 05:57:07;;;;;;;33.58;11.55;;;;;;;13.98;100.00;100293.22;5013879;28;20132;-77
2022/09/14 05:59:38;;;;;;;30.55;10.32;;;;;;;14.03;100.00;100290.00;5044535;28;20029;-76
2022/09/14 06:02:09;;;;;;;35.63;9.88;;;;;;;14.02;100.00;100286.41;5029591;28;20041;-76
2022/09/14 06:04:36;;;;;;;37.85;10.73;;;;;;;14.06;100.00;100290.53;5025337;28;20369;-76
2022/09/14 06:07:10;;;;;;;43.00;10.50;;;;;;;13.90;100.00;100298.66;5019524;28;20041;-77
2022/09/14 06:09:42;;;;;;;39.80;10.02;;;;;;;14.00;100.00;100301.31;5050605;28;20033;-76
2022/09/14 06:12:13;;;;;;;36.90;9.20;;;;;;;14.00;100.00;100304.06;5030085;28;20377;-75
2022/09/14 06:14:39;;;;;;;43.35;11.77;;;;;;;13.95;100.00;100312.81;4998642;28;20038;-76
2022/09/14 06:17:10;;;;;;;49.92;12.18;;;;;;;13.95;100.00;100310.03;4999209;28;20030;-76
2022/09/14 06:19:37;;;;;;;63.42;10.52;;;;;;;13.94;100.00;100305.59;5014539;28;20061;-76
2022/09/14 06:22:14;;;;;;;57.05;10.98;;;;;;;13.96;100.00;100309.88;5015680;28;20390;-76
2022/09/14 06:24:44;;;;;;;52.15;11.75;;;;;;;13.96;100.00;100306.28;5016221;28;20029;-77
2022/09/14 06:27:12;;;;;;;54.70;10.68;;;;;;;13.90;100.00;100307.75;5018197;28;20034;-77
2022/09/14 06:29:41;;;;;;;56.00;12.63;;;;;;;13.99;100.00;100305.97;5016774;28;20029;-77
2022/09/14 06:32:10;;;;;;;53.60;11.75;;;;;;;13.88;100.00;100298.81;5025688;28;20029;-76
2022/09/14 06:34:35;;;;;;;48.50;12.18;;;;;;;13.98;100.00;100305.09;5022858;28;20052;-76
2022/09/14 06:37:06;;;;;;;41.15;10.70;;;;;;;13.91;100.00;100309.50;4983514;28;20042;-76
2022/09/14 06:39:35;;;;;;;52.92;11.40;;;;;;;14.00;100.00;100299.44;5007533;28;20025;-76
2022/09/14 06:42:13;;;;;;;38.08;12.10;;;;;;;13.96;100.00;100304.38;5018239;28;20033;-76
2022/09/14 06:44:39;;;;;;;49.63;11.18;;;;;;;13.91;100.00;100306.75;5014660;28;20501;-76
2022/09/14 06:47:06;;;;;;;55.08;12.77;;;;;;;14.02;100.00;100302.03;5013964;28;20125;-76
2022/09/14 06:49:32;;;;;;;38.80;12.95;;;;;;;13.96;100.00;100303.53;5014128;28;20042;-76
2022/09/14 06:52:00;;;;;;;48.97;11.88;;;;;;;13.86;100.00;100305.50;5006702;28;20044;-77
2022/09/14 06:54:29;;;;;;;32.05;11.40;;;;;;;13.87;100.00;100308.09;5028858;28;20037;-76
2022/09/14 06:56:58;;;;;;;35.58;12.07;;;;;;;13.91;100.00;100308.66;5049781;28;20030;-76
2022/09/14 06:59:29;;;;;;;44.17;12.77;;;;;;;13.83;100.00;100303.06;5002047;28;20038;-76
2022/09/14 07:01:57;;;;;;;50.78;12.70;;;;;;;13.93;100.00;100303.84;5017136;28;20037;-76
2022/09/14 07:04:23;;;;;;;51.40;13.20;;;;;;;13.98;100.00;100305.09;5001340;28;20065;-76
2022/09/14 07:07:03;;;;;;;48.35;12.35;;;;;;;13.88;100.00;100306.19;5013616;28;20049;-76
2022/09/14 07:09:35;;;;;;;62.05;12.85;;;;;;;13.95;100.00;100308.19;5006954;28;20076;-77
2022/09/14 07:12:04;;;;;;;43.20;13.30;;;;;;;14.01;100.00;100314.94;5033500;28;20033;-77
2022/09/14 07:14:40;;;;;;;46.10;12.35;;;;;;;13.94;100.00;100303.69;5028789;28;20873;-77
2022/09/14 07:17:06;;;;;;;44.65;12.75;;;;;;;14.02;100.00;100299.28;4998025;28;20038;-76
2022/09/14 07:19:32;;;;;;;50.97;13.05;;;;;;;13.98;100.00;100290.47;5014288;28;20434;-77
2022/09/14 07:21:57;;;;;;;54.55;14.30;;;;;;;13.93;100.00;100279.06;5025897;28;20046;-77
2022/09/14 07:24:29;;;;;;;38.27;11.70;;;;;;;13.88;100.00;100282.28;5017490;28;20126;-76
2022/09/14 07:26:59;;;;;;;48.55;11.30;;;;;;;13.94;100.00;100278.06;5033315;28;20280;-77
2022/09/14 07:29:29;;;;;;;53.13;14.10;;;;;;;13.99;100.00;100281.19;5016806;28;20037;-77
2022/09/14 07:31:56;;;;;;;46.50;14.00;;;;;;;13.95;100.00;100280.66;4999243;28;20121;-77
2022/09/14 07:34:27;;;;;;;38.22;13.68;;;;;;;13.85;100.00;100279.00;5011311;28;20401;-77
2022/09/14 07:37:01;;;;;;;41.30;13.35;;;;;;;13.87;100.00;100280.59;5013733;28;20033;-77
2022/09/14 07:39:33;;;;;;;59.22;12.93;;;;;;;13.82;100.00;100280.16;5009385;28;20029;-77
2022/09/14 07:41:59;;;;;;;48.28;13.00;;;;;;;13.82;100.00;100282.06;4990772;28;20037;-77
2022/09/14 07:44:25;;;;;;;52.97;12.88;;;;;;;13.78;100.00;100282.38;5015377;28;20038;-77
2022/09/14 07:46:57;;;;;;;49.45;13.98;;;;;;;13.96;100.00;100276.00;4997720;28;20042;-77
2022/09/14 07:49:25;;;;;;;50.50;13.52;;;;;;;13.78;100.00;100279.63;5013417;28;20545;-77
2022/09/14 07:51:54;;;;;;;57.15;13.20;;;;;;;13.87;100.00;100275.06;4997554;28;20029;-77
2022/09/14 07:54:23;;;;;;;54.72;14.63;;;;;;;13.92;100.00;100269.97;5018291;28;20500;-78
2022/09/14 07:56:54;;;;;;;52.38;14.90;;;;;;;13.92;100.00;100266.31;5028741;28;20030;-78
2022/09/14 07:59:26;;;;;;;;;;;;;;;13.81;100.00;100283.06;5028225;28;20037;-77
2022/09/14 08:01:58;;;;;;;42.30;13.32;;;;;;;13.87;100.00;100268.69;5028299;28;20376;-77
2022/09/14 08:04:24;;;;;;;49.35;13.95;;;;;;;13.89;100.00;100274.91;5016839;28;20029;-77
2022/09/14 08:06:58;;;;;;;41.78;14.85;;;;;;;13.85;100.00;100281.75;5017326;28;20370;-77
2022/09/14 08:09:25;;;;;;;61.67;14.82;;;;;;;13.93;100.00;100268.06;5034559;28;20029;-77
2022/09/14 08:11:53;;;;;;;48.40;14.95;;;;;;;13.99;100.00;100275.69;5029027;28;20037;-77
2022/09/14 08:14:19;;;;;;;54.50;15.57;;;;;;;13.98;100.00;100265.69;5013836;28;20037;-76
2022/09/14 08:16:47;;;;;;;51.88;15.90;;;;;;;14.01;100.00;100256.28;5014588;28;20034;-77
2022/09/14 08:19:15;;;;;;;56.97;16.35;;;;;;;14.03;100.00;100259.72;5031486;28;20029;-77
2022/09/14 08:21:42;;;;;;;49.78;16.35;;;;;;;14.15;100.00;100256.56;5015794;28;20038;-77
2022/09/14 08:24:12;;;;;;;57.55;19.98;;;;;;;14.22;100.00;100261.44;5001463;28;20088;-77
2022/09/14 08:26:41;;;;;;;67.38;18.88;;;;;;;14.25;100.00;100258.34;5018042;28;20435;-78
2022/09/14 08:29:13;;;;;;;55.65;17.63;;;;;;;14.22;100.00;100265.06;5017899;28;20152;-78
2022/09/14 08:31:39;;;;;;;53.80;15.65;;;;;;;14.15;100.00;100266.72;5017556;28;20029;-78
2022/09/14 08:34:06;;;;;;;50.95;16.98;;;;;;;14.14;100.00;100265.84;5017177;28;20034;-77
2022/09/14 08:36:45;;;;;;;48.13;18.58;;;;;;;14.16;100.00;100258.28;5018879;28;20037;-77
2022/09/14 08:39:20;;;;;;;71.55;19.70;;;;;;;14.18;100.00;100262.78;5018914;28;20026;-78
2022/09/14 08:41:52;;;;;;;68.45;18.67;;;;;;;14.22;100.00;100269.69;5001493;28;20038;-77
2022/09/14 08:44:24;;;;;;;63.28;19.80;;;;;;;14.24;100.00;100276.75;5018839;28;20593;-77
2022/09/14 08:46:54;;;;;;;62.35;19.88;;;;;;;14.28;100.00;100280.06;5011673;28;20049;-77
2022/09/14 08:49:45;;;;;;;64.82;21.58;;;;;;;14.23;100.00;100279.66;5038035;28;20041;-77
2022/09/14 08:52:28;;;;;;;57.83;22.38;;;;;;;14.23;100.00;100266.78;5011200;28;20367;-77
2022/09/14 08:55:13;;;;;;;79.03;22.88;;;;;;;14.36;100.00;100280.13;5008853;28;20095;-77
2022/09/14 08:57:47;;;;;;;65.55;24.23;;;;;;;14.38;100.00;100283.59;5025537;28;20031;-78
2022/09/14 09:00:17;;;;;;;67.82;21.85;;;;;;;14.32;100.00;100284.22;5018489;28;20421;-78
2022/09/14 09:03:16;;;;;;;69.60;24.05;;;;;;;14.39;100.00;100284.44;5019356;28;20041;-77
2022/09/14 09:05:58;;;;;;;74.47;24.45;;;;;;;14.34;100.00;100284.94;5007585;28;20026;-77
2022/09/14 09:08:44;;;;;;;53.17;21.45;;;;;;;14.45;100.00;100283.81;5000648;28;20029;-76
2022/09/14 09:11:23;;;;;;;65.78;23.88;;;;;;;14.32;100.00;100279.56;5017989;28;20030;-77
2022/09/14 09:13:55;;;;;;;74.65;25.38;;;;;;;14.44;100.00;100273.81;5018091;28;20022;-76
2022/09/14 09:16:29;;;;;;;69.47;25.27;;;;;;;14.55;100.00;100280.97;5016457;28;20030;-77
2022/09/14 09:19:06;;;;;;;76.97;27.38;;;;;;;14.53;100.00;100281.13;5032331;28;20473;-77
2022/09/14 09:21:44;;;;;;;78.78;25.45;;;;;;;14.54;100.00;100285.59;5028598;28;20125;-77
2022/09/14 09:24:26;;;;;;;64.95;24.88;;;;;;;14.45;100.00;100281.06;5018872;28;20025;-77
2022/09/14 09:26:52;;;;;;;77.55;25.10;;;;;;;14.45;100.00;100279.16;5023808;28;20049;-77
2022/09/14 09:29:19;;;;;;;75.50;26.95;;;;;;;14.56;100.00;100279.91;5015265;28;20034;-77
2022/09/14 09:31:52;;;;;;;79.22;26.02;;;;;;;14.59;100.00;100282.34;4999866;28;20106;-77
2022/09/14 09:34:28;;;;;;;56.58;23.50;;;;;;;14.60;100.00;100284.13;5016034;28;20072;-77
2022/09/14 09:37:00;;;;;;;83.15;25.08;;;;;;;14.62;100.00;100282.06;5015537;28;20026;-77
2022/09/14 09:39:32;;;;;;;56.90;22.17;;;;;;;14.51;100.00;100275.78;5017554;28;20033;-77
2022/09/14 09:42:05;;;;;;;66.75;21.95;;;;;;;14.52;100.00;100273.88;4999530;28;20026;-77
2022/09/14 09:45:01;;;;;;;56.60;22.52;;;;;;;14.70;100.00;100276.59;5016648;28;20034;-77
2022/09/14 09:47:40;;;;;;;58.45;21.33;;;;;;;14.59;100.00;100279.59;5014137;28;20053;-77
2022/09/14 09:50:12;;;;;;;59.50;22.67;;;;;;;14.66;100.00;100277.97;5032814;28;20033;-77
2022/09/14 09:52:58;;;;;;;57.80;20.05;;;;;;;14.67;100.00;100274.16;5021154;28;20160;-77
2022/09/14 09:55:37;;;;;;;57.33;21.45;;;;;;;14.66;100.00;100275.22;5051686;28;20045;-77
2022/09/14 09:58:38;;;;;;;62.63;22.33;;;;;;;14.67;100.00;100288.81;5035310;28;20025;-77
2022/09/14 10:01:34;;;;;;;53.63;21.25;;;;;;;14.69;100.00;100275.75;5016289;28;20091;-77
2022/09/14 10:04:18;;;;;;;56.22;20.80;;;;;;;14.73;100.00;100273.53;5015012;28;20033;-77
2022/09/14 10:07:01;;;;;;;61.97;20.50;;;;;;;14.63;100.00;100287.41;5036980;28;20029;-76
2022/09/14 10:09:35;;;;;;;56.00;20.05;;;;;;;14.45;100.00;100286.56;5014900;28;20478;-77
2022/09/14 10:12:14;;;;;;;40.15;18.33;;;;;;;14.40;100.00;100277.94;5036329;28;20037;-78
2022/09/14 10:14:40;;;;;;;53.58;19.67;;;;;;;14.36;100.00;100280.13;5035210;28;20057;-77
2022/09/14 10:17:20;;;;;;;51.85;20.10;;;;;;;14.25;100.00;100273.00;5030058;28;20021;-77
2022/09/14 10:19:52;;;;;;;75.30;22.30;;;;;;;14.42;100.00;100278.63;5015687;28;20038;-77
2022/09/14 10:22:40;;;;;;;69.38;20.63;;;;;;;14.38;100.00;100271.69;5000586;28;20034;-78
2022/09/14 10:25:14;;;;;;;60.50;22.67;;;;;;;14.46;100.00;100272.63;5028153;28;20116;-78
2022/09/14 10:27:53;;;;;;;68.30;23.90;;;;;;;14.44;100.00;100271.91;5019487;28;20392;-78
2022/09/14 10:30:44;;;;;;;59.92;24.30;;;;;;;14.48;100.00;100267.81;5034511;28;20498;-77
2022/09/14 10:33:13;;;;;;;63.55;23.88;;;;;;;14.54;100.00;100269.06;5034108;28;20037;-77
2022/09/14 10:36:04;;;;;;;63.55;24.33;;;;;;;14.47;100.00;100265.22;5021026;28;20021;-77
2022/09/14 10:38:32;;;;;;;69.35;23.08;;;;;;;14.54;100.00;100269.06;5034152;28;20030;-77
2022/09/14 10:41:11;;;;;;;66.35;25.35;;;;;;;14.64;100.00;100266.22;5018368;28;20052;-77
2022/09/14 10:44:10;;;;;;;66.82;24.00;;;;;;;14.65;100.00;100265.22;5033563;28;20033;-76
2022/09/14 10:46:53;;;;;;;58.38;24.95;;;;;;;14.78;100.00;100253.75;5015648;28;20081;-78
2022/09/14 10:49:47;;;;;;;63.75;23.30;;;;;;;14.61;100.00;100250.91;5014874;28;20378;-77
2022/09/14 10:53:03;;;;;;;43.58;21.10;;;;;;;14.74;100.00;100247.72;5015157;28;20026;-77
2022/09/14 10:55:59;;;;;;;69.03;22.85;;;;;;;14.86;100.00;100260.16;5033296;28;20025;-77
2022/09/14 10:59:12;;;;;;;67.18;24.45;;;;;;;14.88;100.00;100258.09;5016314;28;20037;-77
2022/09/14 11:02:19;;;;;;;58.40;23.58;;;;;;;14.90;100.00;100255.16;5020401;28;20036;-77
2022/09/14 11:05:06;;;;;;;64.45;26.08;;;;;;;14.91;100.00;100253.31;5014691;28;20038;-77
2022/09/14 11:07:50;;;;;;;65.93;27.55;;;;;;;15.08;100.00;100257.84;5030123;28;20037;-77
2022/09/14 11:10:53;;;;;;;58.22;22.00;;;;;;;14.86;100.00;100260.16;5028152;28;20359;-77
2022/09/14 11:14:11;;;;;;;63.88;21.05;;;;;;;14.93;100.00;100257.59;5029988;28;20095;-77
2022/09/14 11:16:57;;;;;;;53.53;22.25;;;;;;;14.81;100.00;100261.69;5042959;28;20040;-77
2022/09/14 11:19:58;;;;;;;59.90;22.70;;;;;;;14.74;100.00;100252.34;5011029;28;20033;-77
2022/09/14 11:22:48;;;;;;;48.50;23.30;;;;;;;14.81;100.00;100246.00;5013918;28;20044;-77
2022/09/14 11:25:38;;;;;;;60.90;24.45;;;;;;;14.87;100.00;100245.34;5000620;28;20464;-77
2022/09/14 11:28:18;;;;;;;60.83;25.00;;;;;;;14.80;100.00;100244.28;5029485;28;20031;-77
2022/09/14 11:30:56;;;;;;;73.97;26.23;;;;;;;14.97;100.00;100252.63;5015510;28;20026;-77
2022/09/14 11:33:42;;;;;;;85.45;26.90;;;;;;;14.79;100.00;100249.94;5015409;28;20437;-78
2022/09/14 11:36:43;;;;;;;53.83;24.48;;;;;;;14.81;100.00;100246.00;5022222;28;20046;-77
2022/09/14 11:39:17;;;;;;;65.22;25.75;;;;;;;14.97;100.00;100236.97;5024000;28;20064;-77